sensor_id;sensor_type;location;lat;lon;timestamp;pressure;altitude;pressure_sealevel;temperature;humidity
40155;BME280;25875;48.202;16.334;2022-11-25T00:01:03;99155.72;;;6.16;80.20
40155;BME280;25875;48.202;16.334;2022-11-25T00:03:32;99153.09;;;6.16;80.33
40155;BME280;25875;48.202;16.334;2022-11-25T00:06:07;99157.56;;;6.14;79.98
40155;BME280;25875;48.202;16.334;2022-11-25T00:08:34;99161.97;;;6.14;80.31
40155;BME280;25875;48.202;16.334;2022-11-25T00:11:01;99160.25;;;6.13;80.25
40155;BME280;25875;48.202;16.334;2022-11-25T00:13:27;99157.56;;;6.14;80.24
40155;BME280;25875;48.202;16.334;2022-11-25T00:15:54;99159.28;;;6.15;80.20
40155;BME280;25875;48.202;16.334;2022-11-25T00:18:21;99129.31;;;5.97;80.12
40155;BME280;25875;48.202;16.334;2022-11-25T00:20:49;99162.81;;;6.14;80.17
40155;BME280;25875;48.202;16.334;2022-11-25T00:23:16;99156.72;;;6.14;80.35
40155;BME280;25875;48.202;16.334;2022-11-25T00:25:43;99165.53;;;6.13;80.31
40155;BME280;25875;48.202;16.334;2022-11-25T00:28:10;99164.66;;;6.12;80.24
40155;BME280;25875;48.202;16.334;2022-11-25T00:30:36;99167.28;;;6.12;80.29
40155;BME280;25875;48.202;16.334;2022-11-25T00:33:03;99169.94;;;6.12;80.22
40155;BME280;25875;48.202;16.334;2022-11-25T00:35:30;99066.47;;;5.46;80.33
40155;BME280;25875;48.202;16.334;2022-11-25T00:37:58;99167.47;;;6.07;80.26
40155;BME280;25875;48.202;16.334;2022-11-25T00:40:25;99169.25;;;6.07;80.36
40155;BME280;25875;48.202;16.334;2022-11-25T00:42:52;99150.72;;;5.88;80.36
40155;BME280;25875;48.202;16.334;2022-11-25T00:45:36;99180.69;;;6.06;80.47
40155;BME280;25875;48.202;16.334;2022-11-25T00:48:03;99183.25;;;6.07;80.45
40155;BME280;25875;48.202;16.334;2022-11-25T00:50:30;99182.41;;;6.07;80.41
40155;BME280;25875;48.202;16.334;2022-11-25T00:52:58;99178.00;;;6.07;80.45
40155;BME280;25875;48.202;16.334;2022-11-25T00:55:24;99156.81;;;5.89;80.54
40155;BME280;25875;48.202;16.334;2022-11-25T00:58:12;99181.56;;;6.06;80.40
40155;BME280;25875;48.202;16.334;2022-11-25T01:00:38;99189.38;;;6.08;80.54
40155;BME280;25875;48.202;16.334;2022-11-25T01:03:05;99183.25;;;6.07;80.49
40155;BME280;25875;48.202;16.334;2022-11-25T01:05:32;99184.13;;;6.08;80.38
40155;BME280;25875;48.202;16.334;2022-11-25T01:08:00;99186.75;;;6.08;80.32
40155;BME280;25875;48.202;16.334;2022-11-25T01:10:27;99194.66;;;6.08;80.38
40155;BME280;25875;48.202;16.334;2022-11-25T01:12:53;99190.25;;;6.08;80.31
40155;BME280;25875;48.202;16.334;2022-11-25T01:15:20;99187.66;;;6.07;80.21
40155;BME280;25875;48.202;16.334;2022-11-25T01:17:47;99140.00;;;5.71;80.22
40155;BME280;25875;48.202;16.334;2022-11-25T01:20:14;98829.16;;;3.88;79.88
40155;BME280;25875;48.202;16.334;2022-11-25T01:22:41;99202.41;;;6.11;80.05
40155;BME280;25875;48.202;16.334;2022-11-25T01:25:09;99201.50;;;6.12;79.81
40155;BME280;25875;48.202;16.334;2022-11-25T01:27:36;99197.09;;;6.13;79.71
40155;BME280;25875;48.202;16.334;2022-11-25T01:30:08;99195.31;;;6.13;79.69
40155;BME280;25875;48.202;16.334;2022-11-25T01:32:35;99197.94;;;6.13;79.54
40155;BME280;25875;48.202;16.334;2022-11-25T01:35:03;99197.03;;;6.14;79.53
40155;BME280;25875;48.202;16.334;2022-11-25T01:37:30;99190.91;;;6.14;79.47
40155;BME280;25875;48.202;16.334;2022-11-25T01:39:56;99196.19;;;6.14;79.32
40155;BME280;25875;48.202;16.334;2022-11-25T01:42:28;99188.28;;;6.14;79.14
40155;BME280;25875;48.202;16.334;2022-11-25T01:45:27;99191.78;;;6.14;78.83
40155;BME280;25875;48.202;16.334;2022-11-25T01:48:00;98772.50;;;3.61;79.11
40155;BME280;25875;48.202;16.334;2022-11-25T01:50:29;99194.66;;;6.08;79.43
40155;BME280;25875;48.202;16.334;2022-11-25T01:52:57;99195.50;;;6.08;79.35
40155;BME280;25875;48.202;16.334;2022-11-25T01:55:27;99199.09;;;6.06;79.44
40155;BME280;25875;48.202;16.334;2022-11-25T01:57:59;99194.81;;;6.03;79.32
40155;BME280;25875;48.202;16.334;2022-11-25T02:00:28;99203.69;;;6.01;79.39
40155;BME280;25875;48.202;16.334;2022-11-25T02:02:56;99207.25;;;6.00;79.30
40155;BME280;25875;48.202;16.334;2022-11-25T02:05:34;99207.25;;;6.00;79.36
40155;BME280;25875;48.202;16.334;2022-11-25T02:08:05;99206.63;;;5.93;79.29
40155;BME280;25875;48.202;16.334;2022-11-25T02:10:33;99200.38;;;5.96;79.48
40155;BME280;25875;48.202;16.334;2022-11-25T02:13:02;99210.09;;;5.94;79.35
40155;BME280;25875;48.202;16.334;2022-11-25T02:15:30;99160.28;;;5.67;79.33
40155;BME280;25875;48.202;16.334;2022-11-25T02:17:59;99208.44;;;5.91;79.28
40155;BME280;25875;48.202;16.334;2022-11-25T02:20:26;99206.69;;;5.92;79.22
40155;BME280;25875;48.202;16.334;2022-11-25T02:22:58;99217.25;;;5.90;78.94
40155;BME280;25875;48.202;16.334;2022-11-25T02:25:31;99210.34;;;5.88;79.16
40155;BME280;25875;48.202;16.334;2022-11-25T02:28:02;99212.97;;;5.88;79.05
40155;BME280;25875;48.202;16.334;2022-11-25T02:30:30;99211.25;;;5.87;79.07
40155;BME280;25875;48.202;16.334;2022-11-25T02:32:58;99213.03;;;5.86;78.96
40155;BME280;25875;48.202;16.334;2022-11-25T02:35:28;99199.88;;;5.86;78.90
40155;BME280;25875;48.202;16.334;2022-11-25T02:37:59;99076.97;;;5.01;78.65
40155;BME280;25875;48.202;16.334;2022-11-25T02:40:27;99169.16;;;5.65;78.76
40155;BME280;25875;48.202;16.334;2022-11-25T02:42:58;98997.22;;;4.55;78.61
40155;BME280;25875;48.202;16.334;2022-11-25T02:45:31;98947.41;;;4.30;78.40
40155;BME280;25875;48.202;16.334;2022-11-25T02:47:59;99214.19;;;5.79;78.76
40155;BME280;25875;48.202;16.334;2022-11-25T02:50:26;99060.25;;;4.78;78.67
40155;BME280;25875;48.202;16.334;2022-11-25T02:52:52;99210.75;;;5.77;78.75
40155;BME280;25875;48.202;16.334;2022-11-25T02:55:19;99214.31;;;5.76;78.60
40155;BME280;25875;48.202;16.334;2022-11-25T02:57:46;99184.34;;;5.57;78.70
40155;BME280;25875;48.202;16.334;2022-11-25T03:00:16;99205.91;;;5.66;78.40
40155;BME280;25875;48.202;16.334;2022-11-25T03:02:43;99216.13;;;5.74;78.55
40155;BME280;25875;48.202;16.334;2022-11-25T03:05:10;99173.34;;;5.47;78.47
40155;BME280;25875;48.202;16.334;2022-11-25T03:07:37;99227.56;;;5.73;78.39
40155;BME280;25875;48.202;16.334;2022-11-25T03:10:05;99223.22;;;5.72;78.42
40155;BME280;25875;48.202;16.334;2022-11-25T03:12:31;99223.22;;;5.72;78.46
40155;BME280;25875;48.202;16.334;2022-11-25T03:14:58;99232.81;;;5.73;78.50
40155;BME280;25875;48.202;16.334;2022-11-25T03:17:26;99202.81;;;5.55;78.40
40155;BME280;25875;48.202;16.334;2022-11-25T03:19:53;99229.41;;;5.71;78.56
40155;BME280;25875;48.202;16.334;2022-11-25T03:22:20;99085.00;;;4.71;78.27
40155;BME280;25875;48.202;16.334;2022-11-25T03:24:46;99234.72;;;5.69;78.57
40155;BME280;25875;48.202;16.334;2022-11-25T03:27:13;99237.41;;;5.68;78.32
40155;BME280;25875;48.202;16.334;2022-11-25T03:29:40;99234.72;;;5.69;78.61
40155;BME280;25875;48.202;16.334;2022-11-25T03:32:07;99232.13;;;5.68;78.37
40155;BME280;25875;48.202;16.334;2022-11-25T03:34:35;99236.53;;;5.67;78.54
40155;BME280;25875;48.202;16.334;2022-11-25T03:37:02;99238.31;;;5.67;78.55
40155;BME280;25875;48.202;16.334;2022-11-25T03:39:28;99242.78;;;5.65;78.40
40155;BME280;25875;48.202;16.334;2022-11-25T03:41:55;99246.25;;;5.65;78.45
40155;BME280;25875;48.202;16.334;2022-11-25T03:44:22;99248.03;;;5.65;78.32
40155;BME280;25875;48.202;16.334;2022-11-25T03:46:48;99247.16;;;5.64;78.34
40155;BME280;25875;48.202;16.334;2022-11-25T03:49:15;99256.81;;;5.64;78.50
40155;BME280;25875;48.202;16.334;2022-11-25T03:51:43;99220.75;;;5.44;78.49
40155;BME280;25875;48.202;16.334;2022-11-25T03:54:10;99255.91;;;5.65;78.29
40155;BME280;25875;48.202;16.334;2022-11-25T03:56:37;99105.91;;;4.74;78.19
40155;BME280;25875;48.202;16.334;2022-11-25T03:59:03;99080.19;;;4.59;78.19
40155;BME280;25875;48.202;16.334;2022-11-25T04:01:30;99261.97;;;5.67;78.30
40155;BME280;25875;48.202;16.334;2022-11-25T04:03:57;98740.34;;;2.56;77.96
40155;BME280;25875;48.202;16.334;2022-11-25T04:06:23;99269.91;;;5.65;78.20
40155;BME280;25875;48.202;16.334;2022-11-25T04:08:52;99264.59;;;5.67;78.44
40155;BME280;25875;48.202;16.334;2022-11-25T04:11:18;99271.56;;;5.68;78.25
40155;BME280;25875;48.202;16.334;2022-11-25T04:13:45;99155.81;;;4.99;78.27
40155;BME280;25875;48.202;16.334;2022-11-25T04:16:18;99208.22;;;5.27;77.88
40155;BME280;25875;48.202;16.334;2022-11-25T04:18:48;99243.38;;;5.48;78.03
40155;BME280;25875;48.202;16.334;2022-11-25T04:21:14;99285.69;;;5.65;78.17
40155;BME280;25875;48.202;16.334;2022-11-25T04:23:41;99283.06;;;5.65;78.19
40155;BME280;25875;48.202;16.334;2022-11-25T04:26:09;99283.06;;;5.65;78.08
40155;BME280;25875;48.202;16.334;2022-11-25T04:28:36;99289.25;;;5.64;78.27
40155;BME280;25875;48.202;16.334;2022-11-25T04:31:05;99287.56;;;5.62;78.17
40155;BME280;25875;48.202;16.334;2022-11-25T04:33:32;99284.03;;;5.63;78.25
40155;BME280;25875;48.202;16.334;2022-11-25T04:35:58;99281.47;;;5.61;78.07
40155;BME280;25875;48.202;16.334;2022-11-25T04:38:25;99280.59;;;5.61;77.98
40155;BME280;25875;48.202;16.334;2022-11-25T04:40:52;99285.06;;;5.59;78.10
40155;BME280;25875;48.202;16.334;2022-11-25T04:43:20;99258.63;;;5.38;78.03
40155;BME280;25875;48.202;16.334;2022-11-25T04:45:47;99291.28;;;5.56;77.85
40155;BME280;25875;48.202;16.334;2022-11-25T04:48:14;99291.34;;;5.55;77.99
40155;BME280;25875;48.202;16.334;2022-11-25T04:50:41;99277.34;;;5.54;78.04
40155;BME280;25875;48.202;16.334;2022-11-25T04:53:07;99292.25;;;5.54;78.05
40155;BME280;25875;48.202;16.334;2022-11-25T04:55:34;99290.53;;;5.53;77.96
40155;BME280;25875;48.202;16.334;2022-11-25T04:58:01;99296.66;;;5.53;78.02
40155;BME280;25875;48.202;16.334;2022-11-25T05:00:29;99307.22;;;5.52;77.97
40155;BME280;25875;48.202;16.334;2022-11-25T05:02:55;99307.28;;;5.50;78.07
40155;BME280;25875;48.202;16.334;2022-11-25T05:05:21;99312.59;;;5.49;78.12
40155;BME280;25875;48.202;16.334;2022-11-25T05:07:48;99300.34;;;5.48;77.86
40155;BME280;25875;48.202;16.334;2022-11-25T05:10:15;99311.72;;;5.48;77.86
40155;BME280;25875;48.202;16.334;2022-11-25T05:12:42;99304.75;;;5.47;77.88
40155;BME280;25875;48.202;16.334;2022-11-25T05:15:09;99304.81;;;5.45;77.90
40155;BME280;25875;48.202;16.334;2022-11-25T05:17:38;99269.63;;;5.25;77.75
40155;BME280;25875;48.202;16.334;2022-11-25T05:20:06;99308.34;;;5.44;77.92
40155;BME280;25875;48.202;16.334;2022-11-25T05:22:33;99174.63;;;4.61;77.77
40155;BME280;25875;48.202;16.334;2022-11-25T05:25:00;99311.09;;;5.41;78.03
40155;BME280;25875;48.202;16.334;2022-11-25T05:27:29;99317.31;;;5.39;78.05
40155;BME280;25875;48.202;16.334;2022-11-25T05:29:56;99312.91;;;5.39;78.08
40155;BME280;25875;48.202;16.334;2022-11-25T05:32:23;99274.25;;;5.18;77.96
40155;BME280;25875;48.202;16.334;2022-11-25T05:34:51;99309.47;;;5.37;78.09
40155;BME280;25875;48.202;16.334;2022-11-25T05:37:18;99252.94;;;5.01;78.07
40155;BME280;25875;48.202;16.334;2022-11-25T05:39:44;99312.25;;;5.33;78.16
40155;BME280;25875;48.202;16.334;2022-11-25T05:42:11;99305.34;;;5.30;78.31
40155;BME280;25875;48.202;16.334;2022-11-25T05:44:38;99312.41;;;5.28;78.30
40155;BME280;25875;48.202;16.334;2022-11-25T05:47:04;99306.41;;;5.25;78.41
40155;BME280;25875;48.202;16.334;2022-11-25T05:49:31;99311.72;;;5.23;78.46
40155;BME280;25875;48.202;16.334;2022-11-25T05:51:59;99317.88;;;5.22;78.47
40155;BME280;25875;48.202;16.334;2022-11-25T05:54:26;99143.63;;;4.19;78.45
40155;BME280;25875;48.202;16.334;2022-11-25T05:56:53;99280.22;;;4.97;78.57
40155;BME280;25875;48.202;16.334;2022-11-25T05:59:20;99324.22;;;5.17;78.50
40155;BME280;25875;48.202;16.334;2022-11-25T06:01:46;99313.81;;;5.13;78.55
40155;BME280;25875;48.202;16.334;2022-11-25T06:04:13;99307.75;;;5.11;78.67
40155;BME280;25875;48.202;16.334;2022-11-25T06:06:40;99319.97;;;5.12;78.58
40155;BME280;25875;48.202;16.334;2022-11-25T06:09:08;99323.56;;;5.10;78.58
40155;BME280;25875;48.202;16.334;2022-11-25T06:11:34;99320.97;;;5.08;78.38
40155;BME280;25875;48.202;16.334;2022-11-25T06:14:01;99317.50;;;5.08;78.61
40155;BME280;25875;48.202;16.334;2022-11-25T06:16:28;99319.31;;;5.06;78.72
40155;BME280;25875;48.202;16.334;2022-11-25T06:18:55;99319.31;;;5.06;78.65
40155;BME280;25875;48.202;16.334;2022-11-25T06:21:21;99314.97;;;5.05;78.63
40155;BME280;25875;48.202;16.334;2022-11-25T06:23:48;99321.13;;;5.04;78.76
40155;BME280;25875;48.202;16.334;2022-11-25T06:26:18;99320.22;;;5.05;78.56
40155;BME280;25875;48.202;16.334;2022-11-25T06:28:45;99312.38;;;5.03;78.71
40155;BME280;25875;48.202;16.334;2022-11-25T06:31:14;99328.19;;;5.02;78.81
40155;BME280;25875;48.202;16.334;2022-11-25T06:33:41;99318.56;;;5.02;78.70
40155;BME280;25875;48.202;16.334;2022-11-25T06:36:09;99334.31;;;5.02;78.70
40155;BME280;25875;48.202;16.334;2022-11-25T06:38:41;99324.72;;;5.01;78.83
40155;BME280;25875;48.202;16.334;2022-11-25T06:41:08;99330.81;;;5.02;78.83
40155;BME280;25875;48.202;16.334;2022-11-25T06:43:36;99328.31;;;4.99;78.73
40155;BME280;25875;48.202;16.334;2022-11-25T06:46:04;99331.84;;;4.98;78.90
40155;BME280;25875;48.202;16.334;2022-11-25T06:48:31;99325.78;;;4.96;79.09
40155;BME280;25875;48.202;16.334;2022-11-25T06:51:02;99331.94;;;4.95;79.05
40155;BME280;25875;48.202;16.334;2022-11-25T06:53:30;99273.09;;;4.46;79.13
40155;BME280;25875;48.202;16.334;2022-11-25T06:56:04;99303.63;;;4.76;78.94
40155;BME280;25875;48.202;16.334;2022-11-25T06:58:31;99331.13;;;4.93;79.32
40155;BME280;25875;48.202;16.334;2022-11-25T07:01:05;99336.38;;;4.93;79.25
40155;BME280;25875;48.202;16.334;2022-11-25T07:03:32;99340.72;;;4.94;79.23
40155;BME280;25875;48.202;16.334;2022-11-25T07:05:59;99245.53;;;4.33;79.33
40155;BME280;25875;48.202;16.334;2022-11-25T07:08:27;99211.31;;;4.08;79.24
40155;BME280;25875;48.202;16.334;2022-11-25T07:10:54;99227.03;;;4.08;79.33
40155;BME280;25875;48.202;16.334;2022-11-25T07:13:21;99348.50;;;4.97;79.57
40155;BME280;25875;48.202;16.334;2022-11-25T07:15:48;99351.13;;;4.97;79.37
40155;BME280;25875;48.202;16.334;2022-11-25T07:18:16;99345.84;;;4.98;79.42
40155;BME280;25875;48.202;16.334;2022-11-25T07:20:42;99349.28;;;5.00;79.48
40155;BME280;25875;48.202;16.334;2022-11-25T07:23:09;99350.06;;;5.02;79.56
40155;BME280;25875;48.202;16.334;2022-11-25T07:25:36;99348.22;;;5.06;79.44
40155;BME280;25875;48.202;16.334;2022-11-25T07:28:03;99326.75;;;4.93;79.49
40155;BME280;25875;48.202;16.334;2022-11-25T07:30:29;99353.16;;;5.15;79.66
40155;BME280;25875;48.202;16.334;2022-11-25T07:32:56;99350.31;;;5.21;79.85
40155;BME280;25875;48.202;16.334;2022-11-25T07:35:24;99353.59;;;5.28;80.08
40155;BME280;25875;48.202;16.334;2022-11-25T07:37:51;99351.56;;;5.36;80.11
40155;BME280;25875;48.202;16.334;2022-11-25T07:40:18;99352.13;;;5.45;80.15
40155;BME280;25875;48.202;16.334;2022-11-25T07:42:45;99356.03;;;5.59;80.01
40155;BME280;25875;48.202;16.334;2022-11-25T07:45:11;99356.47;;;5.71;79.90
40155;BME280;25875;48.202;16.334;2022-11-25T07:47:38;99358.72;;;5.82;79.75
40155;BME280;25875;48.202;16.334;2022-11-25T07:50:06;99184.88;;;4.95;79.34
40155;BME280;25875;48.202;16.334;2022-11-25T07:52:36;99354.13;;;6.12;79.29
40155;BME280;25875;48.202;16.334;2022-11-25T07:55:03;99356.22;;;6.26;79.01
40155;BME280;25875;48.202;16.334;2022-11-25T07:57:30;99356.56;;;6.40;78.76
40155;BME280;25875;48.202;16.334;2022-11-25T07:59:57;99361.19;;;6.57;78.63
40155;BME280;25875;48.202;16.334;2022-11-25T08:02:24;99342.69;;;6.58;78.10
40155;BME280;25875;48.202;16.334;2022-11-25T08:04:50;99368.03;;;6.84;77.85
40155;BME280;25875;48.202;16.334;2022-11-25T08:07:17;99369.19;;;6.99;77.44
40155;BME280;25875;48.202;16.334;2022-11-25T08:09:45;99340.34;;;6.96;76.89
40155;BME280;25875;48.202;16.334;2022-11-25T08:12:12;99367.22;;;7.26;76.79
40155;BME280;25875;48.202;16.334;2022-11-25T08:14:39;99361.25;;;7.43;76.50
40155;BME280;25875;48.202;16.334;2022-11-25T08:17:05;99361.47;;;7.58;76.01
40155;BME280;25875;48.202;16.334;2022-11-25T08:19:32;99360.03;;;7.72;75.49
40155;BME280;25875;48.202;16.334;2022-11-25T08:22:00;99362.13;;;7.84;74.96
40155;BME280;25875;48.202;16.334;2022-11-25T08:24:26;99365.22;;;7.93;74.71
40155;BME280;25875;48.202;16.334;2022-11-25T08:26:54;99361.09;;;8.07;74.37
40155;BME280;25875;48.202;16.334;2022-11-25T08:29:23;99369.25;;;8.21;74.35
40155;BME280;25875;48.202;16.334;2022-11-25T08:31:49;99370.63;;;8.29;73.67
40155;BME280;25875;48.202;16.334;2022-11-25T08:34:18;99308.09;;;7.92;73.82
40155;BME280;25875;48.202;16.334;2022-11-25T08:36:45;99372.06;;;8.55;73.14
40155;BME280;25875;48.202;16.334;2022-11-25T08:39:12;99374.13;;;8.67;73.14
40155;BME280;25875;48.202;16.334;2022-11-25T08:41:39;99367.34;;;8.81;72.47
40155;BME280;25875;48.202;16.334;2022-11-25T08:44:07;99380.13;;;8.90;72.22
40155;BME280;25875;48.202;16.334;2022-11-25T08:46:37;99161.31;;;7.71;72.26
40155;BME280;25875;48.202;16.334;2022-11-25T08:49:06;99369.13;;;9.16;71.78
40155;BME280;25875;48.202;16.334;2022-11-25T08:51:35;99322.59;;;8.95;71.62
40155;BME280;25875;48.202;16.334;2022-11-25T08:54:03;99370.16;;;9.50;71.18
40155;BME280;25875;48.202;16.334;2022-11-25T08:56:30;99379.03;;;9.66;70.72
40155;BME280;25875;48.202;16.334;2022-11-25T08:58:57;99369.28;;;9.84;70.28
40155;BME280;25875;48.202;16.334;2022-11-25T09:01:26;99362.22;;;9.84;69.40
40155;BME280;25875;48.202;16.334;2022-11-25T09:03:54;99370.00;;;9.87;69.15
40155;BME280;25875;48.202;16.334;2022-11-25T09:06:22;99337.03;;;9.93;69.25
40155;BME280;25875;48.202;16.334;2022-11-25T09:08:49;99381.53;;;10.19;68.69
40155;BME280;25875;48.202;16.334;2022-11-25T09:11:16;99383.69;;;10.28;68.42
40155;BME280;25875;48.202;16.334;2022-11-25T09:13:43;99376.03;;;10.40;68.16
40155;BME280;25875;48.202;16.334;2022-11-25T09:16:10;99384.31;;;10.49;67.80
40155;BME280;25875;48.202;16.334;2022-11-25T09:18:38;99382.13;;;10.57;67.54
40155;BME280;25875;48.202;16.334;2022-11-25T09:21:09;99382.72;;;10.63;66.69
40155;BME280;25875;48.202;16.334;2022-11-25T09:23:36;99390.00;;;10.75;67.14
40155;BME280;25875;48.202;16.334;2022-11-25T09:26:03;99329.38;;;10.53;66.53
40155;BME280;25875;48.202;16.334;2022-11-25T09:28:31;99382.84;;;10.93;66.13
40155;BME280;25875;48.202;16.334;2022-11-25T09:30:58;99377.03;;;11.02;65.99
40155;BME280;25875;48.202;16.334;2022-11-25T09:33:25;99375.22;;;11.18;65.70
40155;BME280;25875;48.202;16.334;2022-11-25T09:35:53;99376.13;;;11.33;65.13
40155;BME280;25875;48.202;16.334;2022-11-25T09:38:20;99375.50;;;11.43;64.86
40155;BME280;25875;48.202;16.334;2022-11-25T09:40:50;99371.78;;;11.62;64.32
40155;BME280;25875;48.202;16.334;2022-11-25T09:43:26;99334.47;;;11.49;62.75
40155;BME280;25875;48.202;16.334;2022-11-25T09:46:30;99364.59;;;11.78;60.62
40155;BME280;25875;48.202;16.334;2022-11-25T09:49:19;99289.16;;;11.38;60.76
40155;BME280;25875;48.202;16.334;2022-11-25T09:52:00;99371.28;;;11.99;61.83
40155;BME280;25875;48.202;16.334;2022-11-25T09:54:35;99357.19;;;12.13;60.05
40155;BME280;25875;48.202;16.334;2022-11-25T09:57:14;99307.44;;;11.86;59.44
40155;BME280;25875;48.202;16.334;2022-11-25T09:59:46;99361.28;;;12.47;60.66
40155;BME280;25875;48.202;16.334;2022-11-25T10:02:24;99345.53;;;12.44;58.51
40155;BME280;25875;48.202;16.334;2022-11-25T10:04:57;99365.34;;;12.67;59.18
40155;BME280;25875;48.202;16.334;2022-11-25T10:07:34;99360.19;;;12.78;56.84
40155;BME280;25875;48.202;16.334;2022-11-25T10:10:03;99339.41;;;12.70;59.97
40155;BME280;25875;48.202;16.334;2022-11-25T10:12:34;99355.31;;;12.99;59.05
40155;BME280;25875;48.202;16.334;2022-11-25T10:15:10;99357.16;;;13.11;58.16
40155;BME280;25875;48.202;16.334;2022-11-25T10:17:42;99312.88;;;12.83;57.31
40155;BME280;25875;48.202;16.334;2022-11-25T10:20:16;99353.16;;;13.18;56.33
40155;BME280;25875;48.202;16.334;2022-11-25T10:22:46;99349.97;;;13.26;57.29
40155;BME280;25875;48.202;16.334;2022-11-25T10:25:16;99205.91;;;12.65;58.34
40155;BME280;25875;48.202;16.334;2022-11-25T10:27:48;99340.63;;;13.60;57.82
40155;BME280;25875;48.202;16.334;2022-11-25T10:30:18;99255.31;;;13.22;56.79
40155;BME280;25875;48.202;16.334;2022-11-25T10:32:50;99337.75;;;13.75;56.74
40155;BME280;25875;48.202;16.334;2022-11-25T10:35:23;99335.31;;;13.85;56.02
40155;BME280;25875;48.202;16.334;2022-11-25T10:37:55;99269.25;;;13.65;55.71
40155;BME280;25875;48.202;16.334;2022-11-25T10:40:24;99325.63;;;14.09;56.34
40155;BME280;25875;48.202;16.334;2022-11-25T10:42:50;99341.59;;;14.22;56.10
40155;BME280;25875;48.202;16.334;2022-11-25T10:45:20;99331.81;;;14.23;55.16
40155;BME280;25875;48.202;16.334;2022-11-25T10:47:58;99330.06;;;14.34;52.30
40155;BME280;25875;48.202;16.334;2022-11-25T10:50:35;99325.50;;;14.36;53.10
40155;BME280;25875;48.202;16.334;2022-11-25T10:53:12;99225.56;;;13.80;51.60
40155;BME280;25875;48.202;16.334;2022-11-25T10:55:56;99273.94;;;13.99;50.33
40155;BME280;25875;48.202;16.334;2022-11-25T10:58:29;99284.28;;;13.91;52.84
40155;BME280;25875;48.202;16.334;2022-11-25T11:01:02;99326.91;;;14.17;52.07
40155;BME280;25875;48.202;16.334;2022-11-25T11:03:29;99322.63;;;14.14;55.05
40155;BME280;25875;48.202;16.334;2022-11-25T11:05:56;99322.31;;;14.19;54.84
40155;BME280;25875;48.202;16.334;2022-11-25T11:08:26;99290.03;;;14.10;53.31
40155;BME280;25875;48.202;16.334;2022-11-25T11:11:15;99308.19;;;14.42;49.71
40155;BME280;25875;48.202;16.334;2022-11-25T11:13:45;99304.16;;;14.62;54.53
40155;BME280;25875;48.202;16.334;2022-11-25T11:16:27;99299.41;;;14.78;50.31
40155;BME280;25875;48.202;16.334;2022-11-25T11:18:55;99301.44;;;14.74;53.25
40155;BME280;25875;48.202;16.334;2022-11-25T11:21:27;99290.16;;;14.71;53.78
40155;BME280;25875;48.202;16.334;2022-11-25T11:23:57;99202.97;;;13.98;53.46
40155;BME280;25875;48.202;16.334;2022-11-25T11:26:27;99244.91;;;14.20;54.59
40155;BME280;25875;48.202;16.334;2022-11-25T11:29:03;99294.66;;;14.45;51.33
40155;BME280;25875;48.202;16.334;2022-11-25T11:31:33;99286.78;;;14.31;54.93
40155;BME280;25875;48.202;16.334;2022-11-25T11:34:24;99293.94;;;14.30;50.89
40155;BME280;25875;48.202;16.334;2022-11-25T11:37:09;99297.38;;;14.20;52.27
40155;BME280;25875;48.202;16.334;2022-11-25T11:39:57;99294.16;;;14.15;51.11
40155;BME280;25875;48.202;16.334;2022-11-25T11:42:34;99231.13;;;13.64;52.75
40155;BME280;25875;48.202;16.334;2022-11-25T11:45:15;99298.97;;;13.97;52.15
40155;BME280;25875;48.202;16.334;2022-11-25T11:48:00;99269.78;;;13.70;52.00
40155;BME280;25875;48.202;16.334;2022-11-25T11:50:31;99297.81;;;13.75;55.30
40155;BME280;25875;48.202;16.334;2022-11-25T11:53:05;99311.97;;;13.63;53.34
40155;BME280;25875;48.202;16.334;2022-11-25T11:55:48;99300.25;;;13.53;52.61
40155;BME280;25875;48.202;16.334;2022-11-25T11:58:28;99300.69;;;13.33;54.21
40155;BME280;25875;48.202;16.334;2022-11-25T12:01:10;99304.69;;;13.13;54.64
40155;BME280;25875;48.202;16.334;2022-11-25T12:03:43;99203.16;;;12.40;55.84
40155;BME280;25875;48.202;16.334;2022-11-25T12:06:18;99251.22;;;12.64;56.75
40155;BME280;25875;48.202;16.334;2022-11-25T12:08:49;99323.88;;;12.91;56.04
40155;BME280;25875;48.202;16.334;2022-11-25T12:11:23;99304.59;;;12.88;56.11
40155;BME280;25875;48.202;16.334;2022-11-25T12:13:54;99300.78;;;12.92;56.58
40155;BME280;25875;48.202;16.334;2022-11-25T12:16:26;99299.53;;;12.97;56.30
40155;BME280;25875;48.202;16.334;2022-11-25T12:19:02;99296.78;;;12.99;55.73
40155;BME280;25875;48.202;16.334;2022-11-25T12:21:38;99295.50;;;13.04;55.82
40155;BME280;25875;48.202;16.334;2022-11-25T12:24:13;99295.66;;;13.15;55.45
40155;BME280;25875;48.202;16.334;2022-11-25T12:26:49;99288.97;;;13.23;54.50
40155;BME280;25875;48.202;16.334;2022-11-25T12:29:24;99290.97;;;13.19;53.89
40155;BME280;25875;48.202;16.334;2022-11-25T12:31:57;99153.22;;;12.45;54.80
40155;BME280;25875;48.202;16.334;2022-11-25T12:34:33;99284.59;;;13.22;54.53
40155;BME280;25875;48.202;16.334;2022-11-25T12:37:11;99281.63;;;13.26;54.76
40155;BME280;25875;48.202;16.334;2022-11-25T12:39:41;99281.94;;;13.22;55.07
40155;BME280;25875;48.202;16.334;2022-11-25T12:42:15;99282.75;;;13.09;53.89
40155;BME280;25875;48.202;16.334;2022-11-25T12:44:51;99285.72;;;13.05;54.04
40155;BME280;25875;48.202;16.334;2022-11-25T12:47:18;99286.69;;;13.04;55.23
40155;BME280;25875;48.202;16.334;2022-11-25T12:49:48;99218.97;;;12.56;54.97
40155;BME280;25875;48.202;16.334;2022-11-25T12:52:29;99290.69;;;12.97;52.88
40155;BME280;25875;48.202;16.334;2022-11-25T12:55:07;99291.75;;;12.94;54.10
40155;BME280;25875;48.202;16.334;2022-11-25T13:01:23;99311.03;;;12.71;52.34
40155;BME280;25875;48.202;16.334;2022-11-25T13:04:16;99303.16;;;12.69;52.37
40155;BME280;25875;48.202;16.334;2022-11-25T13:07:09;99299.72;;;12.67;52.79
40155;BME280;25875;48.202;16.334;2022-11-25T13:09:54;99270.53;;;12.53;53.64
40155;BME280;25875;48.202;16.334;2022-11-25T13:12:36;99280.47;;;12.64;52.77
40155;BME280;25875;48.202;16.334;2022-11-25T13:15:19;99292.41;;;12.71;53.17